Gleichen, Canada
Current Conditions -  °F | °C
As of 3:00 PM on Thursday 18 Dec 2014 (Local Time) from CYYC Reporting Station
Broken Clouds Broken Clouds  
Wind Chill: 34°   Ceiling: 28000
Heat Index: 37°   Visibility: 30mi
Dew Point: 23°   Wind: 5mph
Humidity: 56%   Direction: 180°S
Pressure: 29.76"   Gusts: NA
Location:  50.87°N, 113.05°W
Report Text: CYYC 182200Z 18004KT 30SM FEW034 FEW140 BKN280 03/M05 A2976 RMK CU1AC2CI3 CU TR SLP122
Loading
Personal Weather Stations






























Interactive Weather Map New forecast layout! Learn more

10-Day Weather Forecast

Advertisements
Track Severe Weather on mobile